KWST/WST METAR and TAF weather

Enter ICAO airport designator
Station Type Date Time Source
KWST METAR 2021/07/26 13:53 UTC NOAA

KWST 261353Z AUTO 00000KT 10SM CLR 25/22 A2988 RMK AO2 SLP119 T02500222


Station Type Date Time Source
KWST Decoded METAR 2021/07/26 13:53 UTC NOAA

WESTERLY STATE AIRPORT, RI, United States (KWST) 41-21N 071-48W 21M
Jul 26, 2021 - 09:53 AM EDT / 2021.07.26 1353 UTC
Wind: Calm:0
Visibility: 10 mile(s):0
Sky conditions: clear
Temperature: 77.0 F (25.0 C)
Dew Point: 72.0 F (22.2 C)
Relative Humidity: 84%
Pressure (altimeter): 29.88 in. Hg (1011 hPa)
ob: KWST 261353Z AUTO 00000KT 10SM CLR 25/22 A2988 RMK AO2 SLP119 T02500222
cycle: 14

Station Type Date Time Source
KWST TAF UTC NOAA

Error!

Example: see airport list